Carneys Point Township, New Jersey
Current Conditions -  °F | °C
As of 5:51 PM on Friday 19 Dec 2014 (Local Time) from KILG Reporting Station
Clear Clear  
Wind Chill: 29°   Ceiling: Unl
Heat Index: 35°   Visibility: 10mi
Dew Point: 22°   Wind: 7mph
Humidity: 59%   Direction: 300°WNW
Pressure: 30.16"   Gusts: NA
Location:  39.6981°N, 75.4502°W
Report Text: KILG 192251Z AUTO 30006KT 10SM CLR 02/M06 A3016 RMK AO2 SLP214 T00171056
Loading
Personal Weather Stations






























Interactive Weather Map New forecast layout! Learn more

10-Day Weather Forecast

Advertisements
Track Severe Weather on mobile